sensor_id;sensor_type;location;lat;lon;timestamp;pressure;altitude;pressure_sealevel;temperature;humidity
21623;BME280;10973;46.706;12.340;2023-05-10T00:02:20;87079.53;;;12.32;58.85
21623;BME280;10973;46.706;12.340;2023-05-10T00:04:48;87075.38;;;12.31;59.13
21623;BME280;10973;46.706;12.340;2023-05-10T00:07:15;87067.47;;;12.31;59.26
21623;BME280;10973;46.706;12.340;2023-05-10T00:09:43;87061.81;;;12.29;59.42
21623;BME280;10973;46.706;12.340;2023-05-10T00:12:10;87065.63;;;12.28;59.53
21623;BME280;10973;46.706;12.340;2023-05-10T00:14:38;87056.94;;;12.28;59.68
21623;BME280;10973;46.706;12.340;2023-05-10T00:17:05;87056.16;;;12.27;59.91
21623;BME280;10973;46.706;12.340;2023-05-10T00:19:32;87059.59;;;12.24;59.47
21623;BME280;10973;46.706;12.340;2023-05-10T00:22:00;87053.16;;;12.25;58.89
21623;BME280;10973;46.706;12.340;2023-05-10T00:24:27;87050.88;;;12.27;59.09
21623;BME280;10973;46.706;12.340;2023-05-10T00:26:54;87050.53;;;12.25;59.37
21623;BME280;10973;46.706;12.340;2023-05-10T00:29:22;87047.88;;;12.25;59.40
21623;BME280;10973;46.706;12.340;2023-05-10T00:31:49;87047.16;;;12.21;59.47
21623;BME280;10973;46.706;12.340;2023-05-10T00:34:17;87043.38;;;12.22;59.33
21623;BME280;10973;46.706;12.340;2023-05-10T00:36:44;87044.50;;;12.21;59.63
21623;BME280;10973;46.706;12.340;2023-05-10T00:39:11;87037.34;;;12.18;59.53
21623;BME280;10973;46.706;12.340;2023-05-10T00:41:38;87039.63;;;12.20;59.45
21623;BME280;10973;46.706;12.340;2023-05-10T00:44:06;87039.25;;;12.17;59.95
21623;BME280;10973;46.706;12.340;2023-05-10T00:46:33;87038.88;;;12.15;60.13
21623;BME280;10973;46.706;12.340;2023-05-10T00:49:01;87029.09;;;12.12;60.25
21623;BME280;10973;46.706;12.340;2023-05-10T00:51:29;87034.75;;;12.11;60.39
21623;BME280;10973;46.706;12.340;2023-05-10T00:53:57;87032.16;;;12.07;60.52
21623;BME280;10973;46.706;12.340;2023-05-10T00:56:26;87038.91;;;12.08;60.73
21623;BME280;10973;46.706;12.340;2023-05-10T00:58:54;87030.28;;;12.04;60.63
21623;BME280;10973;46.706;12.340;2023-05-10T01:01:22;87031.06;;;11.98;60.80
21623;BME280;10973;46.706;12.340;2023-05-10T01:03:49;87021.25;;;11.95;61.06
21623;BME280;10973;46.706;12.340;2023-05-10T01:06:17;87014.91;;;11.92;61.12
21623;BME280;10973;46.706;12.340;2023-05-10T01:08:45;87012.25;;;11.89;61.46
21623;BME280;10973;46.706;12.340;2023-05-10T01:11:13;87017.13;;;11.90;61.44
21623;BME280;10973;46.706;12.340;2023-05-10T01:13:43;87011.13;;;11.86;61.26
21623;BME280;10973;46.706;12.340;2023-05-10T01:16:13;87013.03;;;11.86;61.63
21623;BME280;10973;46.706;12.340;2023-05-10T01:18:41;87010.00;;;11.84;61.49
21623;BME280;10973;46.706;12.340;2023-05-10T01:25:03;87018.72;;;11.81;61.72
21623;BME280;10973;46.706;12.340;2023-05-10T01:33:19;87006.69;;;11.76;61.99
21623;BME280;10973;46.706;12.340;2023-05-10T01:42:10;86992.38;;;11.74;61.61
21623;BME280;10973;46.706;12.340;2023-05-10T01:47:26;86993.50;;;11.73;61.63
21623;BME280;10973;46.706;12.340;2023-05-10T01:50:02;86991.63;;;11.70;61.84
21623;BME280;10973;46.706;12.340;2023-05-10T01:52:42;86993.88;;;11.71;61.84
21623;BME280;10973;46.706;12.340;2023-05-10T01:55:16;86994.25;;;11.73;61.43
21623;BME280;10973;46.706;12.340;2023-05-10T01:57:50;86991.22;;;11.75;61.58
21623;BME280;10973;46.706;12.340;2023-05-10T02:00:19;86986.69;;;11.75;61.47
21623;BME280;10973;46.706;12.340;2023-05-10T02:02:49;86991.97;;;11.75;61.77
21623;BME280;10973;46.706;12.340;2023-05-10T02:05:20;86985.56;;;11.73;61.73
21623;BME280;10973;46.706;12.340;2023-05-10T02:07:49;86990.47;;;11.74;61.56
21623;BME280;10973;46.706;12.340;2023-05-10T02:10:18;86984.81;;;11.72;61.60
21623;BME280;10973;46.706;12.340;2023-05-10T02:12:48;86985.19;;;11.74;61.55
21623;BME280;10973;46.706;12.340;2023-05-10T02:15:22;86986.34;;;11.70;61.74
21623;BME280;10973;46.706;12.340;2023-05-10T02:17:54;86982.97;;;11.69;61.71
21623;BME280;10973;46.706;12.340;2023-05-10T02:20:24;86985.22;;;11.71;61.57
21623;BME280;10973;46.706;12.340;2023-05-10T02:22:57;86974.28;;;11.69;61.49
21623;BME280;10973;46.706;12.340;2023-05-10T02:25:25;86981.06;;;11.70;61.64
21623;BME280;10973;46.706;12.340;2023-05-10T02:27:56;86980.28;;;11.73;61.50
21623;BME280;10973;46.706;12.340;2023-05-10T02:30:25;86975.41;;;11.68;61.36
21623;BME280;10973;46.706;12.340;2023-05-10T02:32:54;86976.94;;;11.69;61.32
21623;BME280;10973;46.706;12.340;2023-05-10T02:35:23;86976.94;;;11.65;61.51
21623;BME280;10973;46.706;12.340;2023-05-10T02:37:51;86974.28;;;11.62;61.49
21623;BME280;10973;46.706;12.340;2023-05-10T02:40:21;86971.66;;;11.62;61.55
21623;BME280;10973;46.706;12.340;2023-05-10T02:42:55;86977.28;;;11.64;61.28
21623;BME280;10973;46.706;12.340;2023-05-10T02:45:28;86971.25;;;11.63;61.44
21623;BME280;10973;46.706;12.340;2023-05-10T02:47:58;86962.97;;;11.61;61.25
21623;BME280;10973;46.706;12.340;2023-05-10T02:50:28;86962.97;;;11.61;61.28
21623;BME280;10973;46.706;12.340;2023-05-10T02:53:02;86970.94;;;11.58;61.28
21623;BME280;10973;46.706;12.340;2023-05-10T02:55:39;86965.66;;;11.58;61.39
21623;BME280;10973;46.706;12.340;2023-05-10T02:58:07;86958.88;;;11.53;61.51
21623;BME280;10973;46.706;12.340;2023-05-10T03:00:34;86959.28;;;11.52;61.69
21623;BME280;10973;46.706;12.340;2023-05-10T03:03:02;86958.88;;;11.53;61.25
21623;BME280;10973;46.706;12.340;2023-05-10T03:05:29;86958.53;;;11.51;61.32
21623;BME280;10973;46.706;12.340;2023-05-10T03:07:57;86954.72;;;11.52;61.15
21623;BME280;10973;46.706;12.340;2023-05-10T03:10:29;86961.91;;;11.48;61.30
21623;BME280;10973;46.706;12.340;2023-05-10T03:13:19;86962.28;;;11.50;61.35
21623;BME280;10973;46.706;12.340;2023-05-10T03:16:06;86963.81;;;11.47;61.37
21623;BME280;10973;46.706;12.340;2023-05-10T03:21:12;86960.44;;;11.43;61.19
21623;BME280;10973;46.706;12.340;2023-05-10T03:24:06;86959.34;;;11.37;61.24
21623;BME280;10973;46.706;12.340;2023-05-10T03:26:36;86958.22;;;11.35;61.12
21623;BME280;10973;46.706;12.340;2023-05-10T03:29:06;86960.88;;;11.35;60.70
21623;BME280;10973;46.706;12.340;2023-05-10T03:31:34;86960.47;;;11.36;60.85
21623;BME280;10973;46.706;12.340;2023-05-10T03:34:02;86954.84;;;11.31;60.71
21623;BME280;10973;46.706;12.340;2023-05-10T03:36:30;86963.13;;;11.29;60.86
21623;BME280;10973;46.706;12.340;2023-05-10T03:38:57;86958.63;;;11.30;60.80
21623;BME280;10973;46.706;12.340;2023-05-10T03:41:24;86962.03;;;11.23;60.89
21623;BME280;10973;46.706;12.340;2023-05-10T03:43:52;86963.19;;;11.15;60.71
21623;BME280;10973;46.706;12.340;2023-05-10T03:46:19;86958.31;;;11.10;60.80
21623;BME280;10973;46.706;12.340;2023-05-10T03:48:46;86961.69;;;11.14;60.90
21623;BME280;10973;46.706;12.340;2023-05-10T03:51:13;86956.41;;;11.18;60.78
21623;BME280;10973;46.706;12.340;2023-05-10T03:53:41;86951.88;;;11.18;60.82
21623;BME280;10973;46.706;12.340;2023-05-10T03:56:08;86964.69;;;11.16;61.25
21623;BME280;10973;46.706;12.340;2023-05-10T03:58:35;86953.75;;;11.18;61.14
21623;BME280;10973;46.706;12.340;2023-05-10T04:01:03;86960.94;;;11.17;61.32
21623;BME280;10973;46.706;12.340;2023-05-10T04:03:30;86959.78;;;11.18;61.16
21623;BME280;10973;46.706;12.340;2023-05-10T04:06:01;86951.91;;;11.15;61.50
21623;BME280;10973;46.706;12.340;2023-05-10T04:08:29;86954.16;;;11.16;61.14
21623;BME280;10973;46.706;12.340;2023-05-10T04:11:10;86954.91;;;11.13;60.99
21623;BME280;10973;46.706;12.340;2023-05-10T04:13:38;86950.41;;;11.14;61.12
21623;BME280;10973;46.706;12.340;2023-05-10T04:16:06;86952.66;;;11.12;61.33
21623;BME280;10973;46.706;12.340;2023-05-10T04:18:33;86962.09;;;11.13;61.00
21623;BME280;10973;46.706;12.340;2023-05-10T04:21:00;86957.97;;;11.08;60.87
21623;BME280;10973;46.706;12.340;2023-05-10T04:23:28;86955.69;;;11.10;60.74
21623;BME280;10973;46.706;12.340;2023-05-10T04:26:02;86959.84;;;11.08;60.76
21623;BME280;10973;46.706;12.340;2023-05-10T04:28:30;86958.69;;;11.09;60.81
21623;BME280;10973;46.706;12.340;2023-05-10T04:31:08;86964.00;;;11.05;60.87
21623;BME280;10973;46.706;12.340;2023-05-10T04:33:36;86962.88;;;11.03;60.84
21623;BME280;10973;46.706;12.340;2023-05-10T04:36:04;86961.34;;;11.02;60.98
21623;BME280;10973;46.706;12.340;2023-05-10T04:38:32;86961.75;;;11.00;61.10
21623;BME280;10973;46.706;12.340;2023-05-10T04:41:07;86959.47;;;11.02;60.79
21623;BME280;10973;46.706;12.340;2023-05-10T04:43:36;86955.72;;;11.03;60.83
21623;BME280;10973;46.706;12.340;2023-05-10T04:46:04;86958.72;;;11.05;60.89
21623;BME280;10973;46.706;12.340;2023-05-10T04:48:32;86965.88;;;11.05;61.03
21623;BME280;10973;46.706;12.340;2023-05-10T04:51:00;86959.13;;;10.97;60.62
21623;BME280;10973;46.706;12.340;2023-05-10T04:53:27;86966.28;;;10.96;60.84
21623;BME280;10973;46.706;12.340;2023-05-10T04:55:55;86962.91;;;10.89;60.64
21623;BME280;10973;46.706;12.340;2023-05-10T04:58:22;86963.28;;;10.91;60.60
21623;BME280;10973;46.706;12.340;2023-05-10T05:00:49;86964.78;;;10.88;60.88
21623;BME280;10973;46.706;12.340;2023-05-10T05:03:17;86963.28;;;10.87;60.60
21623;BME280;10973;46.706;12.340;2023-05-10T05:05:44;86967.84;;;10.83;60.89
21623;BME280;10973;46.706;12.340;2023-05-10T05:08:12;86964.06;;;10.81;60.90
21623;BME280;10973;46.706;12.340;2023-05-10T05:10:39;86964.06;;;10.77;61.38
21623;BME280;10973;46.706;12.340;2023-05-10T05:13:06;86958.41;;;10.82;61.44
21623;BME280;10973;46.706;12.340;2023-05-10T05:15:34;86966.72;;;10.81;61.42
21623;BME280;10973;46.706;12.340;2023-05-10T05:18:01;86964.84;;;10.81;61.12
21623;BME280;10973;46.706;12.340;2023-05-10T05:20:32;86961.44;;;10.77;61.36
21623;BME280;10973;46.706;12.340;2023-05-10T05:23:00;86960.69;;;10.80;61.13
21623;BME280;10973;46.706;12.340;2023-05-10T05:25:27;86963.34;;;10.77;60.95
21623;BME280;10973;46.706;12.340;2023-05-10T05:27:55;86965.22;;;10.76;61.19
21623;BME280;10973;46.706;12.340;2023-05-10T05:30:22;86964.06;;;10.77;61.07
21623;BME280;10973;46.706;12.340;2023-05-10T05:32:49;86963.34;;;10.77;61.19
21623;BME280;10973;46.706;12.340;2023-05-10T05:35:17;86966.72;;;10.73;61.41
21623;BME280;10973;46.706;12.340;2023-05-10T05:37:44;86968.59;;;10.80;61.19
21623;BME280;10973;46.706;12.340;2023-05-10T05:40:15;86965.59;;;10.78;61.46
21623;BME280;10973;46.706;12.340;2023-05-10T05:42:42;86964.06;;;10.81;61.38
21623;BME280;10973;46.706;12.340;2023-05-10T05:45:10;86962.91;;;10.89;61.10
21623;BME280;10973;46.706;12.340;2023-05-10T05:47:41;86967.81;;;10.90;61.22
21623;BME280;10973;46.706;12.340;2023-05-10T05:50:10;86967.78;;;10.94;61.08
21623;BME280;10973;46.706;12.340;2023-05-10T05:52:37;86967.03;;;10.93;61.19
21623;BME280;10973;46.706;12.340;2023-05-10T05:55:05;86965.91;;;10.94;61.21
21623;BME280;10973;46.706;12.340;2023-05-10T05:57:32;86961.75;;;11.00;61.05
21623;BME280;10973;46.706;12.340;2023-05-10T06:00:00;86961.00;;;10.96;60.93
21623;BME280;10973;46.706;12.340;2023-05-10T06:02:27;86966.25;;;11.03;60.86
21623;BME280;10973;46.706;12.340;2023-05-10T06:04:55;86975.28;;;11.02;60.67
21623;BME280;10973;46.706;12.340;2023-05-10T06:07:22;86960.22;;;11.03;60.91
21623;BME280;10973;46.706;12.340;2023-05-10T06:09:49;86973.03;;;10.97;60.89
21623;BME280;10973;46.706;12.340;2023-05-10T06:12:17;86974.53;;;11.05;60.81
21623;BME280;10973;46.706;12.340;2023-05-10T06:14:44;86971.50;;;11.07;60.70
21623;BME280;10973;46.706;12.340;2023-05-10T06:17:12;86966.97;;;11.11;60.84
21623;BME280;10973;46.706;12.340;2023-05-10T06:19:39;86979.75;;;11.16;61.05
21623;BME280;10973;46.706;12.340;2023-05-10T06:22:07;86972.97;;;11.18;60.53
21623;BME280;10973;46.706;12.340;2023-05-10T06:24:34;86972.63;;;11.16;60.95
21623;BME280;10973;46.706;12.340;2023-05-10T06:27:01;86973.75;;;11.12;60.81
21623;BME280;10973;46.706;12.340;2023-05-10T06:29:29;86976.00;;;11.17;60.71
21623;BME280;10973;46.706;12.340;2023-05-10T06:31:56;86980.88;;;11.18;60.50
21623;BME280;10973;46.706;12.340;2023-05-10T06:34:24;86977.88;;;11.16;60.75
21623;BME280;10973;46.706;12.340;2023-05-10T06:36:51;86978.28;;;11.11;60.49
21623;BME280;10973;46.706;12.340;2023-05-10T06:39:19;86973.41;;;11.10;60.60
21623;BME280;10973;46.706;12.340;2023-05-10T06:41:46;86973.78;;;11.08;61.18
21623;BME280;10973;46.706;12.340;2023-05-10T06:44:14;86974.16;;;11.03;60.68
21623;BME280;10973;46.706;12.340;2023-05-10T06:46:41;86977.53;;;11.11;60.84
21623;BME280;10973;46.706;12.340;2023-05-10T06:49:09;86976.00;;;11.13;61.59
21623;BME280;10973;46.706;12.340;2023-05-10T06:51:36;86969.66;;;10.93;61.07
21623;BME280;10973;46.706;12.340;2023-05-10T06:54:03;86965.97;;;10.77;61.06
21623;BME280;10973;46.706;12.340;2023-05-10T06:56:31;86979.47;;;10.89;61.63
21623;BME280;10973;46.706;12.340;2023-05-10T06:58:58;86977.94;;;10.99;61.37
21623;BME280;10973;46.706;12.340;2023-05-10T07:01:25;86969.66;;;11.00;61.31
21623;BME280;10973;46.706;12.340;2023-05-10T07:03:53;86976.03;;;11.06;61.15
21623;BME280;10973;46.706;12.340;2023-05-10T07:06:20;86976.41;;;11.12;61.24
21623;BME280;10973;46.706;12.340;2023-05-10T07:09:00;86979.00;;;11.15;61.41
21623;BME280;10973;46.706;12.340;2023-05-10T07:11:27;86975.97;;;11.20;61.16
21623;BME280;10973;46.706;12.340;2023-05-10T07:13:54;86966.16;;;11.24;60.66
21623;BME280;10973;46.706;12.340;2023-05-10T07:16:22;86967.69;;;11.25;61.09
21623;BME280;10973;46.706;12.340;2023-05-10T07:18:49;86970.72;;;11.20;60.98
21623;BME280;10973;46.706;12.340;2023-05-10T07:21:16;86967.31;;;11.23;60.67
21623;BME280;10973;46.706;12.340;2023-05-10T07:23:44;86972.22;;;11.21;60.29
21623;BME280;10973;46.706;12.340;2023-05-10T07:26:11;86967.69;;;11.25;60.42
21623;BME280;10973;46.706;12.340;2023-05-10T07:28:39;86975.97;;;11.20;60.45
21623;BME280;10973;46.706;12.340;2023-05-10T07:31:06;86969.19;;;11.26;60.93
21623;BME280;10973;46.706;12.340;2023-05-10T07:33:34;86971.41;;;11.31;60.95
21623;BME280;10973;46.706;12.340;2023-05-10T07:36:01;86975.53;;;11.36;60.89
21623;BME280;10973;46.706;12.340;2023-05-10T07:38:29;86981.94;;;11.38;60.70
21623;BME280;10973;46.706;12.340;2023-05-10T07:40:56;86971.38;;;11.38;60.72
21623;BME280;10973;46.706;12.340;2023-05-10T07:43:23;86968.78;;;11.31;60.90
21623;BME280;10973;46.706;12.340;2023-05-10T07:45:50;86975.56;;;11.32;60.76
21623;BME280;10973;46.706;12.340;2023-05-10T07:48:22;86970.66;;;11.34;60.85
21623;BME280;10973;46.706;12.340;2023-05-10T07:50:49;86988.00;;;11.32;60.83
21623;BME280;10973;46.706;12.340;2023-05-10T07:53:17;86980.44;;;11.37;60.67
21623;BME280;10973;46.706;12.340;2023-05-10T07:55:50;86975.94;;;11.34;61.15
21623;BME280;10973;46.706;12.340;2023-05-10T07:58:17;86975.16;;;11.41;60.73
21623;BME280;10973;46.706;12.340;2023-05-10T08:00:45;86973.66;;;11.36;60.70
21623;BME280;10973;46.706;12.340;2023-05-10T08:03:12;86972.50;;;11.41;60.66
21623;BME280;10973;46.706;12.340;2023-05-10T08:05:40;86974.38;;;11.40;60.47
21623;BME280;10973;46.706;12.340;2023-05-10T08:08:07;86972.16;;;11.32;60.45
21623;BME280;10973;46.706;12.340;2023-05-10T08:10:35;86975.19;;;11.30;60.41
21623;BME280;10973;46.706;12.340;2023-05-10T08:13:02;86976.69;;;11.31;60.70
21623;BME280;10973;46.706;12.340;2023-05-10T08:15:29;86974.06;;;11.31;61.33
21623;BME280;10973;46.706;12.340;2023-05-10T08:17:57;86969.19;;;11.26;61.49
21623;BME280;10973;46.706;12.340;2023-05-10T08:20:24;86979.69;;;11.33;60.90
21623;BME280;10973;46.706;12.340;2023-05-10T08:22:52;86971.38;;;11.38;61.58
21623;BME280;10973;46.706;12.340;2023-05-10T08:25:19;86973.66;;;11.40;61.54
21623;BME280;10973;46.706;12.340;2023-05-10T08:27:47;86974.38;;;11.40;60.44
21623;BME280;10973;46.706;12.340;2023-05-10T08:30:14;86976.69;;;11.31;60.51
21623;BME280;10973;46.706;12.340;2023-05-10T08:32:42;86980.50;;;11.23;60.78
21623;BME280;10973;46.706;12.340;2023-05-10T08:35:09;86977.81;;;11.34;60.74
21623;BME280;10973;46.706;12.340;2023-05-10T08:37:37;86979.31;;;11.35;61.51
21623;BME280;10973;46.706;12.340;2023-05-10T08:40:06;86972.88;;;11.43;61.19
21623;BME280;10973;46.706;12.340;2023-05-10T08:42:39;86968.75;;;11.42;60.81
21623;BME280;10973;46.706;12.340;2023-05-10T08:45:11;86978.50;;;11.48;61.08
21623;BME280;10973;46.706;12.340;2023-05-10T08:47:39;86976.97;;;11.55;60.97
21623;BME280;10973;46.706;12.340;2023-05-10T08:50:08;86976.16;;;11.61;60.78
21623;BME280;10973;46.706;12.340;2023-05-10T08:52:38;86975.41;;;11.68;60.49
21623;BME280;10973;46.706;12.340;2023-05-10T08:55:08;86977.72;;;11.55;60.25
21623;BME280;10973;46.706;12.340;2023-05-10T08:57:36;86983.72;;;11.59;60.71
21623;BME280;10973;46.706;12.340;2023-05-10T09:00:04;86975.81;;;11.59;60.82
21623;BME280;10973;46.706;12.340;2023-05-10T09:02:32;86982.97;;;11.59;60.54
21623;BME280;10973;46.706;12.340;2023-05-10T09:05:00;86988.59;;;11.64;60.81
21623;BME280;10973;46.706;12.340;2023-05-10T09:07:28;86990.13;;;11.65;60.73
21623;BME280;10973;46.706;12.340;2023-05-10T09:09:56;86992.38;;;11.63;60.43
21623;BME280;10973;46.706;12.340;2023-05-10T09:12:25;86993.94;;;11.50;60.32
21623;BME280;10973;46.706;12.340;2023-05-10T09:14:54;86989.84;;;11.38;60.46
21623;BME280;10973;46.706;12.340;2023-05-10T09:17:24;86985.69;;;11.44;60.38
21623;BME280;10973;46.706;12.340;2023-05-10T09:20:03;86997.78;;;11.35;60.38
21623;BME280;10973;46.706;12.340;2023-05-10T09:22:31;86994.03;;;11.32;60.52
21623;BME280;10973;46.706;12.340;2023-05-10T09:25:10;86991.41;;;11.25;60.83
21623;BME280;10973;46.706;12.340;2023-05-10T09:27:46;86987.28;;;11.21;60.90
21623;BME280;10973;46.706;12.340;2023-05-10T09:30:30;86990.69;;;11.18;61.23
21623;BME280;10973;46.706;12.340;2023-05-10T09:32:59;86993.72;;;11.13;61.40
21623;BME280;10973;46.706;12.340;2023-05-10T09:35:30;86994.09;;;11.11;61.56
21623;BME280;10973;46.706;12.340;2023-05-10T09:38:03;86992.59;;;11.10;61.50
21623;BME280;10973;46.706;12.340;2023-05-10T09:40:31;86985.81;;;11.13;61.71
21623;BME280;10973;46.706;12.340;2023-05-10T09:43:02;86994.47;;;11.13;61.56
21623;BME280;10973;46.706;12.340;2023-05-10T09:45:33;87000.13;;;11.12;61.48
21623;BME280;10973;46.706;12.340;2023-05-10T09:48:05;86997.13;;;11.06;61.26
21623;BME280;10973;46.706;12.340;2023-05-10T09:50:33;86993.38;;;11.04;62.00
21623;BME280;10973;46.706;12.340;2023-05-10T09:53:02;86996.38;;;11.06;61.77
21623;BME280;10973;46.706;12.340;2023-05-10T09:55:45;86999.03;;;10.99;61.37
21623;BME280;10973;46.706;12.340;2023-05-10T09:58:13;86999.81;;;10.89;61.83
21623;BME280;10973;46.706;12.340;2023-05-10T10:00:43;87004.31;;;10.88;62.35
21623;BME280;10973;46.706;12.340;2023-05-10T10:03:17;87000.94;;;10.84;61.73
21623;BME280;10973;46.706;12.340;2023-05-10T10:05:47;86991.94;;;10.78;61.59
21623;BME280;10973;46.706;12.340;2023-05-10T10:08:15;86997.97;;;10.75;62.48
21623;BME280;10973;46.706;12.340;2023-05-10T10:10:43;86994.94;;;10.73;62.32
21623;BME280;10973;46.706;12.340;2023-05-10T10:13:10;87000.59;;;10.68;61.64
21623;BME280;10973;46.706;12.340;2023-05-10T10:15:38;86994.59;;;10.64;62.47
21623;BME280;10973;46.706;12.340;2023-05-10T10:18:07;87000.97;;;10.70;62.37
21623;BME280;10973;46.706;12.340;2023-05-10T10:20:39;87004.00;;;10.68;62.43
21623;BME280;10973;46.706;12.340;2023-05-10T10:23:08;87006.66;;;10.65;62.58
21623;BME280;10973;46.706;12.340;2023-05-10T10:25:37;86999.50;;;10.62;62.64
21623;BME280;10973;46.706;12.340;2023-05-10T10:28:24;87007.03;;;10.67;62.63
21623;BME280;10973;46.706;12.340;2023-05-10T10:30:56;87010.41;;;10.71;62.25
21623;BME280;10973;46.706;12.340;2023-05-10T10:33:39;87007.38;;;10.76;62.35
21623;BME280;10973;46.706;12.340;2023-05-10T10:36:08;87011.16;;;10.71;61.64
21623;BME280;10973;46.706;12.340;2023-05-10T10:39:00;87009.28;;;10.72;61.75
21623;BME280;10973;46.706;12.340;2023-05-10T10:41:34;87016.41;;;10.75;61.79
